Time;durP1;ratioP1;P1;durP2;ratioP2;P2;SDS_P1;SDS_P2;PMS_P1;PMS_P2;Temp;Humidity;BMP_temperature;BMP_pressure;BME280_temperature;BME280_humidity;BME280_pressure;Samples;Min_cycle;Max_cycle;Signal;HPM_P1;HPM_P2
2022/04/27 00:01:55;;;;;;;9.25;5.32;;;9.50;97.60;;;;;;5055286;28;20119;-72
2022/04/27 00:04:21;;;;;;;13.10;5.47;;;9.50;97.70;;;;;;5021137;28;20384;-72
2022/04/27 00:06:47;;;;;;;11.07;5.63;;;9.60;97.70;;;;;;5038151;28;20115;-72
2022/04/27 00:09:13;;;;;;;11.27;5.80;;;9.70;97.70;;;;;;5055110;28;20083;-72
2022/04/27 00:11:39;;;;;;;9.32;5.72;;;9.70;97.70;;;;;;5055212;28;20056;-72
2022/04/27 00:14:05;;;;;;;10.57;6.00;;;9.80;97.60;;;;;;5054666;28;20045;-72
2022/04/27 00:16:31;;;;;;;12.35;5.95;;;9.80;97.60;;;;;;5055022;28;20049;-72
2022/04/27 00:18:56;;;;;;;11.05;6.00;;;9.90;97.70;;;;;;5055083;28;20041;-72
2022/04/27 00:21:22;;;;;;;11.52;6.15;;;9.90;97.70;;;;;;5037379;28;20045;-72
2022/04/27 00:23:48;;;;;;;11.63;6.45;;;9.90;97.60;;;;;;5037304;28;20053;-72
2022/04/27 00:26:14;;;;;;;15.18;6.50;;;9.90;97.50;;;;;;5037276;28;20072;-72
2022/04/27 00:28:39;;;;;;;11.98;6.43;;;9.90;97.60;;;;;;5054469;28;20041;-72
2022/04/27 00:31:05;;;;;;;15.38;6.05;;;10.00;97.60;;;;;;5020727;28;20049;-72
2022/04/27 00:33:31;;;;;;;12.60;5.80;;;10.00;97.70;;;;;;5054719;28;20044;-72
2022/04/27 00:35:57;;;;;;;10.63;6.63;;;10.00;97.80;;;;;;5037253;28;20388;-72
2022/04/27 00:38:23;;;;;;;12.88;6.40;;;10.00;97.70;;;;;;5020627;28;20049;-72
2022/04/27 00:40:48;;;;;;;13.45;6.20;;;9.90;97.60;;;;;;5036866;28;20045;-72
2022/04/27 00:43:15;;;;;;;10.40;6.45;;;9.90;97.60;;;;;;5042594;28;20063;-72
2022/04/27 00:45:41;;;;;;;9.55;5.45;;;9.90;97.70;;;;;;5054553;28;20060;-72
2022/04/27 00:48:09;;;;;;;11.60;5.72;;;10.00;97.80;;;;;;5054711;28;20468;-72
2022/04/27 00:50:35;;;;;;;12.68;5.93;;;10.00;97.80;;;;;;5053234;28;20052;-72
2022/04/27 00:53:01;;;;;;;12.07;6.18;;;10.10;97.90;;;;;;5054383;28;20392;-72
2022/04/27 00:55:30;;;;;;;13.07;6.50;;;10.10;97.90;;;;;;5036588;28;20059;-72
2022/04/27 00:57:56;;;;;;;8.45;5.55;;;10.10;97.90;;;;;;5053323;28;20091;-72
2022/04/27 01:00:22;;;;;;;10.23;5.90;;;10.10;97.90;;;;;;5054297;28;20056;-72
2022/04/27 01:02:48;;;;;;;9.80;6.05;;;10.20;97.90;;;;;;5052688;28;20033;-72
2022/04/27 01:05:14;;;;;;;11.10;6.07;;;10.20;97.80;;;;;;5053272;28;20044;-72
2022/04/27 01:07:41;;;;;;;12.63;5.95;;;10.20;97.80;;;;;;5054126;28;20484;-72
2022/04/27 01:10:08;;;;;;;10.68;5.93;;;10.20;97.90;;;;;;5054089;28;20052;-72
2022/04/27 01:12:36;;;;;;;14.43;6.82;;;10.20;98.00;;;;;;5036010;28;20087;-72
2022/04/27 01:15:02;;;;;;;13.52;6.15;;;10.30;98.00;;;;;;5053212;28;20466;-75
2022/04/27 01:17:28;;;;;;;11.55;6.20;;;10.20;98.00;;;;;;5053023;28;20045;-72
2022/04/27 01:19:53;;;;;;;13.75;6.10;;;10.30;98.00;;;;;;5054053;28;20048;-72
2022/04/27 01:22:20;;;;;;;9.50;6.30;;;10.20;98.00;;;;;;5053882;28;20503;-72
2022/04/27 01:24:46;;;;;;;11.68;5.88;;;10.20;98.00;;;;;;5053898;28;20122;-72
2022/04/27 01:27:11;;;;;;;11.40;5.85;;;10.30;98.00;;;;;;5052848;28;20647;-72
2022/04/27 01:29:37;;;;;;;12.05;5.22;;;10.40;98.10;;;;;;5052801;28;19928;-72
2022/04/27 01:32:03;;;;;;;12.48;5.60;;;10.30;98.10;;;;;;5052805;28;20056;-73
2022/04/27 01:34:30;;;;;;;10.57;5.50;;;10.30;98.20;;;;;;5036208;28;20045;-72
2022/04/27 01:37:59;;;;;;;9.98;5.30;;;10.40;98.30;;;;;;5052528;28;20041;-73
2022/04/27 01:39:44;;;;;;;10.90;5.70;;;10.40;98.40;;;;;;5053618;28;20049;-72
2022/04/27 01:42:10;;;;;;;12.57;5.85;;;10.30;98.40;;;;;;5052501;28;20127;-72
2022/04/27 01:44:35;;;;;;;13.85;5.97;;;10.40;98.40;;;;;;5034167;28;20132;-72
2022/04/27 01:47:01;;;;;;;10.85;5.72;;;10.40;98.50;;;;;;5052620;28;20075;-72
2022/04/27 01:49:27;;;;;;;11.95;6.47;;;10.40;98.40;;;;;;5035377;28;20045;-72
2022/04/27 01:54:36;;;;;;;15.77;6.78;;;10.50;98.40;;;;;;5052953;28;20059;-72
2022/04/27 01:57:02;;;;;;;11.82;6.03;;;10.50;98.50;;;;;;5053536;28;20131;-72
2022/04/27 01:59:28;;;;;;;13.43;6.15;;;10.50;98.40;;;;;;5053496;28;20041;-72
2022/04/27 02:01:57;;;;;;;12.77;6.35;;;10.60;98.50;;;;;;5052522;28;20050;-72
2022/04/27 02:04:23;;;;;;;10.68;6.13;;;10.60;98.50;;;;;;5053080;28;20501;-73
2022/04/27 02:06:48;;;;;;;12.88;6.22;;;10.50;98.50;;;;;;5054008;28;20091;-72
2022/04/27 02:09:14;;;;;;;12.30;6.15;;;10.50;98.50;;;;;;5053407;28;20427;-72
2022/04/27 02:11:39;;;;;;;12.98;6.28;;;10.50;98.70;;;;;;5035829;28;20053;-72
2022/04/27 02:14:06;;;;;;;15.43;6.00;;;10.50;98.70;;;;;;5035655;28;20059;-72
2022/04/27 02:16:31;;;;;;;12.13;6.05;;;10.50;98.70;;;;;;5056156;28;20052;-73
2022/04/27 02:18:57;;;;;;;9.23;5.85;;;10.60;98.90;;;;;;5057393;28;20067;-72
2022/04/27 02:21:23;;;;;;;12.02;6.10;;;10.60;98.90;;;;;;5057530;28;20056;-72
2022/04/27 02:23:49;;;;;;;12.20;6.15;;;10.60;98.90;;;;;;5057199;28;20053;-72
2022/04/27 02:26:15;;;;;;;10.77;5.90;;;10.60;99.10;;;;;;5056992;28;20465;-72
2022/04/27 02:28:41;;;;;;;11.98;6.65;;;10.60;98.90;;;;;;5057024;28;20041;-72
2022/04/27 02:31:07;;;;;;;11.98;6.25;;;10.60;99.00;;;;;;5057069;28;20052;-72
2022/04/27 02:33:33;;;;;;;11.88;6.05;;;10.60;99.00;;;;;;5056096;28;20048;-72
2022/04/27 02:35:59;;;;;;;13.70;6.18;;;10.60;99.00;;;;;;5056066;28;20044;-72
2022/04/27 02:38:27;;;;;;;11.02;6.43;;;10.70;99.00;;;;;;5056959;28;20138;-72
2022/04/27 02:40:54;;;;;;;16.20;6.13;;;10.70;99.00;;;;;;5055952;28;20088;-72
2022/04/27 02:43:21;;;;;;;10.50;6.55;;;10.70;99.00;;;;;;5054907;28;20053;-73
2022/04/27 02:45:48;;;;;;;11.77;6.55;;;10.80;98.90;;;;;;5055805;28;20178;-73
2022/04/27 02:48:14;;;;;;;8.88;5.45;;;10.80;98.90;;;;;;5056682;28;20045;-73
2022/04/27 02:53:24;;;;;;;13.82;5.45;;;10.70;98.90;;;;;;5056280;28;20106;-72
2022/04/27 02:55:50;;;;;;;11.98;5.75;;;10.70;99.00;;;;;;5055678;28;20045;-73
2022/04/27 02:58:15;;;;;;;13.82;5.75;;;10.70;99.10;;;;;;5055340;28;20075;-73
2022/04/27 03:00:44;;;;;;;14.18;7.25;;;10.60;99.10;;;;;;5055855;28;20091;-72
2022/04/27 03:03:10;;;;;;;14.00;5.88;;;10.70;99.20;;;;;;5056519;28;20128;-73
2022/04/27 03:05:36;;;;;;;13.63;6.97;;;10.70;99.20;;;;;;5056457;28;20049;-73
2022/04/27 03:08:02;;;;;;;11.15;6.68;;;10.70;99.20;;;;;;5038901;28;20049;-72
2022/04/27 03:10:28;;;;;;;10.75;5.78;;;10.70;99.20;;;;;;5056361;28;20088;-73
2022/04/27 03:12:54;;;;;;;10.45;6.07;;;10.80;99.20;;;;;;5054978;28;20095;-73
2022/04/27 03:15:19;;;;;;;10.27;5.70;;;10.70;99.20;;;;;;5055149;28;20479;-73
2022/04/27 03:17:45;;;;;;;12.63;5.70;;;10.80;99.20;;;;;;5055193;28;20507;-73
2022/04/27 03:20:11;;;;;;;9.27;5.57;;;10.80;99.20;;;;;;5055795;28;20131;-73
2022/04/27 03:22:36;;;;;;;7.95;5.45;;;10.80;99.20;;;;;;5054815;28;20067;-73
2022/04/27 03:25:03;;;;;;;9.52;5.50;;;10.70;99.20;;;;;;5055176;28;20056;-72
2022/04/27 03:27:28;;;;;;;17.23;5.93;;;10.70;99.20;;;;;;5055887;28;20048;-73
2022/04/27 03:29:54;;;;;;;16.70;6.00;;;10.70;99.20;;;;;;5055090;28;20045;-73
2022/04/27 03:32:20;;;;;;;9.93;5.65;;;10.70;99.20;;;;;;5038501;28;20045;-73
2022/04/27 03:34:46;;;;;;;9.75;5.28;;;10.70;99.30;;;;;;5054951;28;20056;-73
2022/04/27 03:37:12;;;;;;;11.27;5.75;;;10.60;99.30;;;;;;5054872;28;20053;-73
2022/04/27 03:39:38;;;;;;;8.73;5.10;;;10.60;99.40;;;;;;5055517;28;20059;-73
2022/04/27 03:42:04;;;;;;;9.95;5.30;;;10.60;99.40;;;;;;5054753;28;20071;-73
2022/04/27 03:44:29;;;;;;;9.38;5.10;;;10.60;99.40;;;;;;5037218;28;20399;-73
2022/04/27 03:46:55;;;;;;;8.15;5.45;;;10.60;99.50;;;;;;5056017;28;20102;-72
2022/04/27 03:49:21;;;;;;;7.82;4.63;;;10.70;99.50;;;;;;5054353;28;20049;-73
2022/04/27 03:51:47;;;;;;;10.77;5.32;;;10.60;99.40;;;;;;5055278;28;20081;-72
2022/04/27 03:54:12;;;;;;;8.70;5.45;;;10.60;99.40;;;;;;5054577;28;20056;-73
2022/04/27 03:56:38;;;;;;;11.90;5.25;;;10.60;99.40;;;;;;5054593;28;20468;-72
2022/04/27 03:59:04;;;;;;;8.63;4.30;;;10.60;99.50;;;;;;5054216;28;20041;-73
2022/04/27 04:01:29;;;;;;;8.35;4.15;;;10.60;99.30;;;;;;5054389;28;20369;-73
2022/04/27 04:03:57;;;;;;;9.63;4.43;;;10.70;99.20;;;;;;5055275;28;20048;-73
2022/04/27 04:06:22;;;;;;;10.50;4.30;;;10.70;99.20;;;;;;5054324;28;20061;-72
2022/04/27 04:08:48;;;;;;;8.55;3.33;;;10.70;99.30;;;;;;5055175;28;20373;-73
2022/04/27 04:11:14;;;;;;;6.78;3.35;;;10.60;99.10;;;;;;5054042;28;20491;-73
2022/04/27 04:13:39;;;;;;;9.57;4.03;;;10.60;99.00;;;;;;5054900;28;20468;-73
2022/04/27 04:16:05;;;;;;;8.93;3.30;;;10.50;98.90;;;;;;5037546;28;20051;-73
2022/04/27 04:18:30;;;;;;;8.98;3.92;;;10.50;99.00;;;;;;5055075;28;20134;-73
2022/04/27 04:20:56;;;;;;;8.18;3.83;;;10.50;99.20;;;;;;5054148;28;20051;-73
2022/04/27 04:23:22;;;;;;;7.75;3.75;;;10.50;99.10;;;;;;5054047;28;20087;-73
2022/04/27 04:28:32;;;;;;;6.72;3.85;;;10.60;99.30;;;;;;5054878;28;20055;-73
2022/04/27 04:30:59;;;;;;;7.68;3.80;;;10.60;99.40;;;;;;5054838;28;20045;-73
2022/04/27 04:33:25;;;;;;;8.23;3.90;;;10.70;99.30;;;;;;5054959;28;20051;-73
2022/04/27 04:35:52;;;;;;;7.82;4.28;;;10.70;99.40;;;;;;5053785;28;20045;-74
2022/04/27 04:38:18;;;;;;;9.05;3.70;;;10.60;99.40;;;;;;5053773;28;20074;-73
2022/04/27 04:40:43;;;;;;;8.93;4.03;;;10.70;99.40;;;;;;5055130;28;20060;-73
2022/04/27 04:43:09;;;;;;;7.10;3.85;;;10.70;99.40;;;;;;5052878;28;20400;-73
2022/04/27 04:45:35;;;;;;;7.90;4.05;;;10.70;99.40;;;;;;5054670;28;20124;-72
2022/04/27 04:48:01;;;;;;;7.05;3.60;;;10.70;99.50;;;;;;5054410;28;20048;-73
2022/04/27 04:50:26;;;;;;;9.27;4.10;;;10.70;99.40;;;;;;5004228;28;20076;-72
2022/04/27 04:52:52;;;;;;;7.72;4.25;;;10.70;99.40;;;;;;5054440;28;20115;-73
2022/04/27 04:55:18;;;;;;;6.82;3.92;;;10.80;99.50;;;;;;5036806;28;20048;-73
2022/04/27 04:57:43;;;;;;;6.40;3.83;;;10.80;99.50;;;;;;5054291;28;20175;-73
2022/04/27 05:00:10;;;;;;;5.05;3.67;;;10.80;99.30;;;;;;5036752;28;20500;-72
2022/04/27 05:02:36;;;;;;;6.78;4.13;;;10.80;99.30;;;;;;5054171;28;20049;-72
2022/04/27 05:05:03;;;;;;;7.75;3.70;;;10.90;99.40;;;;;;5036575;28;20075;-73
2022/04/27 05:07:30;;;;;;;6.82;3.53;;;10.90;99.40;;;;;;5054114;28;20045;-72
2022/04/27 05:09:56;;;;;;;4.20;3.30;;;10.90;99.20;;;;;;5020126;28;20495;-73
2022/04/27 05:12:23;;;;;;;5.40;3.30;;;10.90;99.30;;;;;;5054058;28;20408;-73
2022/04/27 05:14:49;;;;;;;7.15;3.60;;;11.00;99.30;;;;;;5036077;28;20056;-73
2022/04/27 05:17:15;;;;;;;7.80;3.35;;;11.10;99.20;;;;;;5054553;28;20436;-73
2022/04/27 05:19:41;;;;;;;7.97;3.30;;;11.10;99.10;;;;;;5036326;28;20080;-73
2022/04/27 05:22:07;;;;;;;7.63;3.60;;;11.10;99.10;;;;;;5053912;28;20435;-73
2022/04/27 05:24:33;;;;;;;4.93;3.10;;;11.10;99.00;;;;;;5037000;28;20091;-73
2022/04/27 05:26:59;;;;;;;8.07;3.63;;;11.10;99.10;;;;;;5053814;28;20049;-73
2022/04/27 05:32:10;;;;;;;8.13;4.00;;;11.20;99.40;;;;;;5035944;28;20476;-73
2022/04/27 05:34:36;;;;;;;9.45;4.35;;;11.20;99.40;;;;;;5036116;28;20118;-73
2022/04/27 05:37:02;;;;;;;7.20;4.15;;;11.20;98.70;;;;;;5019643;28;20087;-73
2022/04/27 05:39:28;;;;;;;4.70;3.50;;;11.00;98.60;;;;;;5053626;28;20049;-73
2022/04/27 05:41:54;;;;;;;6.90;4.03;;;11.10;99.00;;;;;;5053660;28;20098;-73
2022/04/27 05:44:22;;;;;;;10.40;4.55;;;11.20;99.00;;;;;;5053220;28;20057;-72
2022/04/27 05:46:52;;;;;;;7.88;4.18;;;11.30;98.50;;;;;;5019497;28;20064;-72
2022/04/27 05:49:19;;;;;;;7.93;4.15;;;11.30;98.40;;;;;;5052899;28;20392;-73
2022/04/27 05:51:45;;;;;;;10.40;4.40;;;11.40;98.60;;;;;;5053508;28;20045;-72
2022/04/27 05:54:13;;;;;;;12.20;4.50;;;11.50;98.60;;;;;;5053577;28;20049;-72
2022/04/27 05:56:40;;;;;;;8.23;3.97;;;11.50;98.70;;;;;;5053489;28;20057;-72
2022/04/27 05:59:07;;;;;;;6.63;3.67;;;11.60;98.70;;;;;;5019328;28;20052;-73
2022/04/27 06:01:32;;;;;;;10.35;4.00;;;11.60;98.50;;;;;;5019618;28;20457;-73
2022/04/27 06:03:58;;;;;;;7.15;4.07;;;11.60;98.10;;;;;;5035859;28;20160;-72
2022/04/27 06:06:24;;;;;;;6.82;4.05;;;11.60;97.90;;;;;;5035881;28;20040;-73
2022/04/27 06:08:50;;;;;;;8.38;3.22;;;11.70;98.10;;;;;;5053298;28;20159;-73
2022/04/27 06:11:16;;;;;;;5.35;2.60;;;11.80;97.60;;;;;;5035785;28;20103;-72
2022/04/27 06:13:43;;;;;;;5.72;2.22;;;11.50;95.80;;;;;;5035330;28;20500;-72
2022/04/27 06:16:09;;;;;;;8.68;2.38;;;11.10;94.70;;;;;;5035811;28;20041;-72
2022/04/27 06:18:34;;;;;;;5.25;1.77;;;11.10;95.60;;;;;;5053513;28;20124;-73
2022/04/27 06:21:01;;;;;;;6.57;1.80;;;11.20;94.90;;;;;;5053237;28;20462;-72
2022/04/27 06:23:27;;;;;;;4.32;1.88;;;11.40;94.70;;;;;;5035402;28;20133;-73
2022/04/27 06:25:53;;;;;;;3.53;1.85;;;11.50;95.40;;;;;;5053517;28;20049;-72
2022/04/27 06:28:20;;;;;;;6.30;2.70;;;11.60;95.80;;;;;;5053143;28;20045;-72
2022/04/27 06:30:45;;;;;;;7.00;3.20;;;11.80;95.80;;;;;;5053188;28;20110;-72
2022/04/27 06:33:11;;;;;;;5.00;3.03;;;11.80;96.40;;;;;;5053349;28;20423;-73
2022/04/27 06:35:39;;;;;;;3.55;2.67;;;11.70;96.20;;;;;;5053128;28;20049;-72
2022/04/27 06:38:07;;;;;;;5.13;2.95;;;11.80;96.20;;;;;;5035758;28;20056;-72
2022/04/27 06:40:33;;;;;;;6.55;3.10;;;11.90;96.10;;;;;;5053032;28;20048;-72
2022/04/27 06:42:59;;;;;;;4.72;2.97;;;11.80;96.30;;;;;;5052649;28;20049;-72
2022/04/27 06:45:27;;;;;;;5.53;3.17;;;11.90;95.70;;;;;;5032232;28;20083;-72
2022/04/27 06:47:54;;;;;;;6.55;3.30;;;11.90;95.40;;;;;;5053016;28;20045;-73
2022/04/27 06:50:20;;;;;;;7.32;3.20;;;11.90;95.40;;;;;;5051632;28;20514;-72
2022/04/27 06:52:47;;;;;;;7.32;2.67;;;11.90;95.30;;;;;;5052984;28;20052;-72
2022/04/27 06:55:13;;;;;;;10.38;2.40;;;12.00;95.40;;;;;;5052947;28;20131;-72
2022/04/27 06:57:39;;;;;;;6.20;2.28;;;12.10;95.20;;;;;;5052768;28;20049;-73
2022/04/27 07:00:05;;;;;;;6.60;2.30;;;12.20;95.00;;;;;;5053111;28;20041;-72
2022/04/27 07:02:32;;;;;;;8.75;2.03;;;12.10;94.90;;;;;;5055429;28;20049;-73
2022/04/27 07:05:00;;;;;;;6.22;2.15;;;12.10;94.50;;;;;;5056482;28;20049;-72
2022/04/27 07:07:27;;;;;;;6.78;2.10;;;12.00;94.40;;;;;;5056346;28;20041;-73
2022/04/27 07:09:53;;;;;;;5.50;1.83;;;12.10;94.00;;;;;;5056411;28;20045;-72
2022/04/27 07:12:20;;;;;;;3.80;1.90;;;12.10;94.30;;;;;;5055977;28;20049;-70
2022/04/27 07:14:46;;;;;;;7.38;2.15;;;12.10;94.80;;;;;;5054906;28;20052;-71
2022/04/27 07:17:18;;;;;;;5.60;2.17;;;12.30;94.40;;;;;;5056277;28;20056;-70
2022/04/27 07:19:44;;;;;;;6.05;1.80;;;12.20;94.60;;;;;;5056249;28;20041;-72
2022/04/27 07:22:10;;;;;;;3.72;1.88;;;12.10;93.90;;;;;;5055282;28;20049;-72
2022/04/27 07:24:37;;;;;;;6.32;1.73;;;12.20;94.00;;;;;;5055140;28;20049;-72
2022/04/27 07:27:03;;;;;;;5.53;2.00;;;12.30;93.70;;;;;;5056029;28;20061;-72
2022/04/27 07:29:29;;;;;;;6.18;1.90;;;12.40;94.40;;;;;;5055993;28;20067;-74
2022/04/27 07:31:55;;;;;;;5.85;1.48;;;12.40;94.40;;;;;;5039139;28;20052;-73
2022/04/27 07:34:21;;;;;;;4.65;1.52;;;12.30;93.20;;;;;;5058750;28;20044;-72
2022/04/27 07:36:47;;;;;;;3.47;1.50;;;12.30;93.80;;;;;;5055563;28;20052;-71
2022/04/27 07:39:12;;;;;;;5.63;1.95;;;12.30;93.50;;;;;;5021920;28;20080;-71
2022/04/27 07:41:38;;;;;;;4.78;1.35;;;12.40;94.40;;;;;;5038275;28;20387;-71
2022/04/27 07:44:06;;;;;;;5.18;1.88;;;12.20;92.60;;;;;;5054061;28;20136;-71
2022/04/27 07:46:32;;;;;;;6.70;1.80;;;12.40;92.90;;;;;;5056062;28;20053;-71
2022/04/27 07:48:58;;;;;;;4.15;1.85;;;12.40;93.60;;;;;;5038317;28;20107;-71
2022/04/27 07:51:24;;;;;;;3.80;1.40;;;12.40;93.80;;;;;;5055630;28;20492;-71
2022/04/27 07:53:50;;;;;;;4.75;1.70;;;12.60;93.40;;;;;;5037647;28;20090;-71
2022/04/27 07:56:16;;;;;;;5.28;1.98;;;12.50;93.10;;;;;;5055618;28;20077;-72
2022/04/27 07:58:41;;;;;;;5.47;1.60;;;12.50;93.40;;;;;;5054733;28;20099;-71
2022/04/27 08:01:07;;;;;;;3.50;1.60;;;12.60;92.80;;;;;;5055429;28;20040;-71
2022/04/27 08:03:33;;;;;;;6.97;1.70;;;12.30;92.70;;;;;;5054473;28;20044;-71
2022/04/27 08:06:01;;;;;;;2.63;1.45;;;12.40;92.80;;;;;;5055340;28;20051;-71
2022/04/27 08:08:27;;;;;;;8.00;1.98;;;12.30;92.70;;;;;;5054205;28;20051;-71
2022/04/27 08:10:53;;;;;;;5.05;1.95;;;12.50;92.80;;;;;;5054245;28;20387;-72
2022/04/27 08:13:18;;;;;;;6.18;1.63;;;12.40;92.80;;;;;;5054735;28;20041;-72
2022/04/27 08:15:44;;;;;;;5.85;1.77;;;12.40;92.90;;;;;;5053956;28;20049;-71
2022/04/27 08:18:10;;;;;;;4.45;1.63;;;12.30;92.60;;;;;;5054029;28;20080;-71
2022/04/27 08:23:32;;;;;;;7.00;1.50;;;12.20;92.60;;;;;;5055085;28;20049;-71
2022/04/27 08:26:00;;;;;;;9.00;1.50;;;11.90;92.90;;;;;;5053998;28;20051;-71
2022/04/27 08:28:27;;;;;;;4.38;1.50;;;12.10;93.00;;;;;;5053795;28;20498;-70
2022/04/27 08:30:53;;;;;;;4.70;1.33;;;12.40;92.60;;;;;;5054960;28;20135;-70
2022/04/27 08:33:19;;;;;;;6.32;1.70;;;12.50;92.80;;;;;;5054148;28;20392;-71
2022/04/27 08:35:46;;;;;;;6.88;1.80;;;12.70;93.00;;;;;;5053872;28;20052;-71
2022/04/27 08:38:12;;;;;;;4.88;1.65;;;12.60;92.70;;;;;;5053776;28;20057;-71
2022/04/27 08:40:44;;;;;;;4.97;1.50;;;12.40;92.80;;;;;;5054721;28;20056;-71
2022/04/27 08:43:10;;;;;;;7.15;1.77;;;12.40;92.50;;;;;;5054628;28;20052;-71
2022/04/27 08:45:36;;;;;;;8.13;1.88;;;12.30;93.00;;;;;;5053044;28;20435;-69
2022/04/27 08:48:04;;;;;;;6.07;1.77;;;12.20;92.80;;;;;;5054416;28;20049;-71
2022/04/27 08:50:30;;;;;;;6.28;2.15;;;12.10;92.80;;;;;;5037044;28;20128;-71
2022/04/27 08:52:55;;;;;;;9.82;1.92;;;12.30;92.80;;;;;;5054647;28;20080;-71
2022/04/27 08:55:22;;;;;;;4.40;1.38;;;12.30;92.90;;;;;;5036851;28;20095;-70
2022/04/27 08:57:49;;;;;;;9.52;1.90;;;12.10;92.80;;;;;;5054386;28;20137;-70
2022/04/27 09:00:19;;;;;;;7.47;2.28;;;12.20;92.90;;;;;;5054196;28;20041;-72
2022/04/27 09:02:45;;;;;;;8.70;1.88;;;12.40;93.10;;;;;;5054275;28;20043;-72
2022/04/27 09:05:19;;;;;;;8.52;1.58;;;12.40;93.30;;;;;;5053231;28;20040;-72
2022/04/27 09:07:50;;;;;;;6.53;1.60;;;12.50;93.40;;;;;;5053127;28;20484;-83
2022/04/27 09:10:22;;;;;;;5.22;1.67;;;12.30;93.10;;;;;;5052862;28;20095;-85
2022/04/27 09:12:53;;;;;;;8.80;1.92;;;12.50;93.80;;;;;;5053148;28;20043;-85
2022/04/27 09:15:25;;;;;;;7.28;1.70;;;12.00;93.20;;;;;;5036604;28;20102;-84
2022/04/27 09:20:48;;;;;;;16.75;2.42;;;11.60;93.60;;;;;;5038939;28;20053;-85
2022/04/27 09:23:37;;;;;;;13.05;2.40;;;11.70;93.90;;;;;;5020836;28;20063;-85
2022/04/27 09:26:22;;;;;;;11.93;2.20;;;12.10;94.10;;;;;;5053620;28;20049;-87
2022/04/27 09:28:55;;;;;;;10.30;2.30;;;12.00;94.10;;;;;;5052987;28;20051;-84
2022/04/27 09:31:30;;;;;;;9.02;2.05;;;12.00;94.10;;;;;;5053078;28;20052;-88
2022/04/27 09:34:01;;;;;;;20.88;2.83;;;11.90;94.10;;;;;;5053871;28;20052;-86
2022/04/27 09:36:27;;;;;;;17.42;2.08;;;12.00;93.80;;;;;;5053069;28;20041;-78
2022/04/27 09:38:55;;;;;;;19.70;3.00;;;12.30;94.10;;;;;;5052695;28;20464;-86
2022/04/27 09:41:41;;;;;;;9.57;2.10;;;12.00;94.00;;;;;;5036573;28;20148;-92
2022/04/27 09:44:08;;;;;;;;;;;12.20;93.90;;;;;;5036124;28;20060;-68
2022/04/27 09:46:40;;;;;;;9.40;2.00;;;12.20;94.00;;;;;;5052506;28;19928;-68
2022/04/27 09:49:09;;;;;;;13.23;1.67;;;12.50;93.80;;;;;;5053451;28;20044;-69
2022/04/27 09:51:51;;;;;;;9.18;2.08;;;12.60;93.90;;;;;;5051864;28;20041;-72
2022/04/27 09:54:25;;;;;;;7.97;1.95;;;12.70;93.50;;;;;;5052010;28;20057;-70
2022/04/27 09:56:56;;;;;;;6.63;1.88;;;12.70;93.40;;;;;;5051024;28;20056;-70
2022/04/27 09:59:26;;;;;;;5.57;1.70;;;12.80;93.30;;;;;;5052881;28;20045;-69
2022/04/27 10:01:57;;;;;;;7.40;1.85;;;12.70;93.10;;;;;;5053568;28;20049;-84
2022/04/27 10:04:28;;;;;;;8.60;1.85;;;12.60;93.10;;;;;;5036114;28;20044;-69
2022/04/27 10:06:56;;;;;;;8.93;2.47;;;12.10;93.30;;;;;;5053488;28;20089;-69
2022/04/27 10:09:22;;;;;;;17.17;2.92;;;12.10;93.90;;;;;;5053380;28;20052;-70
2022/04/27 10:11:48;;;;;;;8.45;2.25;;;12.20;94.10;;;;;;5053295;28;20047;-70
2022/04/27 10:14:14;;;;;;;11.57;2.63;;;12.30;94.10;;;;;;5052850;28;20048;-69
2022/04/27 10:16:40;;;;;;;7.95;2.33;;;12.40;93.90;;;;;;5053126;28;20052;-72
2022/04/27 10:19:10;;;;;;;10.70;1.98;;;12.10;94.10;;;;;;5053743;28;20081;-81
2022/04/27 10:21:39;;;;;;;75.97;8.93;;;12.30;94.40;;;;;;5036022;28;20049;-68
2022/04/27 10:24:09;;;;;;;551.33;77.03;;;12.40;94.30;;;;;;5051687;28;20045;-69
2022/04/27 10:26:35;;;;;;;599.55;91.35;;;12.40;94.40;;;;;;5053205;28;20056;-69
2022/04/27 10:29:08;;;;;;;340.35;44.28;;;12.60;94.10;;;;;;5053142;28;20049;-68
2022/04/27 10:31:43;;;;;;;496.33;70.22;;;12.40;94.10;;;;;;5053215;28;20049;-72
2022/04/27 10:34:22;;;;;;;239.15;31.65;;;12.60;94.10;;;;;;5052715;28;20041;-72
2022/04/27 10:36:56;;;;;;;66.60;8.18;;;12.80;94.10;;;;;;5055958;28;20106;-70
2022/04/27 10:39:24;;;;;;;244.75;34.70;;;12.90;94.00;;;;;;5057733;28;20279;-70
2022/04/27 10:41:55;;;;;;;116.47;17.50;;;13.00;94.20;;;;;;5056091;28;20080;-70
2022/04/27 10:44:41;;;;;;;143.18;19.95;;;13.10;94.30;;;;;;5055198;28;20053;-70
2022/04/27 10:47:21;;;;;;;104.88;14.13;;;13.10;94.20;;;;;;5055904;28;20057;-70
2022/04/27 10:49:51;;;;;;;42.30;7.68;;;12.90;94.10;;;;;;5056842;28;20114;-70
2022/04/27 10:52:23;;;;;;;43.38;6.60;;;13.00;94.10;;;;;;5056707;28;20065;-70
2022/04/27 10:54:49;;;;;;;27.77;5.30;;;13.00;94.20;;;;;;5057165;28;20411;-67
2022/04/27 10:57:14;;;;;;;53.65;9.55;;;12.80;94.10;;;;;;5058391;28;20052;-69
2022/04/27 10:59:47;;;;;;;38.28;6.57;;;12.90;94.20;;;;;;5055504;28;20045;-69
2022/04/27 11:02:37;;;;;;;36.85;5.22;;;13.00;94.20;;;;;;5055059;28;20388;-69
2022/04/27 11:05:11;;;;;;;22.88;3.67;;;12.90;94.10;;;;;;5055490;28;20523;-69
2022/04/27 11:07:48;;;;;;;30.35;4.38;;;12.60;94.40;;;;;;5056401;28;20388;-69
2022/04/27 11:10:19;;;;;;;33.92;5.15;;;12.70;94.30;;;;;;5054864;28;20502;-70
2022/04/27 11:12:49;;;;;;;22.45;3.38;;;12.90;94.30;;;;;;5056291;28;20158;-71
2022/04/27 11:15:22;;;;;;;22.52;3.50;;;13.00;94.20;;;;;;5054879;28;20059;-71
2022/04/27 11:18:02;;;;;;;19.42;3.75;;;13.10;94.20;;;;;;5038572;28;20484;-70
2022/04/27 11:20:37;;;;;;;15.73;2.67;;;13.10;94.10;;;;;;5056151;28;20051;-70
2022/04/27 11:23:09;;;;;;;18.83;3.60;;;13.10;94.00;;;;;;5054964;28;20041;-70
2022/04/27 11:25:42;;;;;;;17.45;3.28;;;13.00;94.00;;;;;;5054695;28;20041;-70
2022/04/27 11:28:08;;;;;;;13.70;2.65;;;13.00;93.90;;;;;;5055205;28;20041;-70
2022/04/27 11:30:34;;;;;;;17.73;3.38;;;13.00;93.90;;;;;;5053997;28;20049;-70
2022/04/27 11:33:01;;;;;;;11.35;2.30;;;13.00;93.90;;;;;;5054574;28;20049;-71
2022/04/27 11:35:44;;;;;;;17.52;2.63;;;13.10;94.10;;;;;;5055394;28;20045;-71
2022/04/27 11:38:15;;;;;;;13.15;2.67;;;13.00;93.60;;;;;;5055614;28;20048;-70
2022/04/27 11:40:41;;;;;;;10.88;2.60;;;13.00;93.90;;;;;;5055899;28;20045;-70
2022/04/27 11:43:07;;;;;;;14.70;2.35;;;13.20;94.00;;;;;;5037902;28;20053;-70
2022/04/27 11:45:33;;;;;;;15.70;2.70;;;13.30;93.90;;;;;;5055538;28;20099;-70
2022/04/27 11:48:04;;;;;;;13.18;2.53;;;13.20;93.90;;;;;;5037494;28;20049;-69
2022/04/27 11:50:31;;;;;;;11.80;2.80;;;13.30;93.70;;;;;;5021589;28;20561;-69
2022/04/27 11:53:08;;;;;;;11.90;2.38;;;13.20;93.80;;;;;;5038041;28;20113;-69
2022/04/27 11:55:35;;;;;;;16.27;2.70;;;13.20;93.70;;;;;;5038023;28;20110;-71
2022/04/27 11:58:02;;;;;;;14.10;2.45;;;13.20;93.90;;;;;;5055693;28;20049;-72
2022/04/27 12:00:30;;;;;;;12.63;2.75;;;13.30;93.60;;;;;;5056016;28;20049;-89
2022/04/27 12:03:08;;;;;;;16.45;2.45;;;12.70;93.70;;;;;;5022048;28;20053;-71
2022/04/27 12:05:38;;;;;;;10.68;2.28;;;12.60;93.70;;;;;;5055378;28;20138;-68
2022/04/27 12:08:12;;;;;;;15.57;2.45;;;12.70;93.80;;;;;;5037596;28;20056;-69
2022/04/27 12:10:46;;;;;;;11.93;2.85;;;12.70;94.00;;;;;;5055325;28;20132;-69
2022/04/27 12:13:23;;;;;;;27.50;2.55;;;12.90;93.80;;;;;;5055433;28;20135;-91
2022/04/27 12:15:51;;;;;;;10.23;2.45;;;12.90;94.20;;;;;;5037386;28;20399;-69
2022/04/27 12:18:25;;;;;;;12.05;2.40;;;12.90;93.70;;;;;;5055129;28;20535;-69
2022/04/27 12:20:55;;;;;;;11.38;2.17;;;12.70;93.50;;;;;;5055230;28;20128;-69
2022/04/27 12:23:40;;;;;;;12.75;2.60;;;12.70;93.50;;;;;;5055063;28;20484;-69
2022/04/27 12:26:07;;;;;;;11.53;2.47;;;12.60;93.60;;;;;;5054992;28;20063;-69
2022/04/27 12:28:41;;;;;;;7.75;1.95;;;12.70;93.90;;;;;;5054814;28;20810;-69
2022/04/27 12:31:09;;;;;;;13.52;2.72;;;13.00;93.90;;;;;;5055089;28;20048;-69
2022/04/27 12:33:45;;;;;;;15.10;2.33;;;13.20;93.50;;;;;;5054824;28;20124;-69
2022/04/27 12:39:16;;;;;;;13.48;2.65;;;13.50;93.30;;;;;;5054876;28;20052;-69
2022/04/27 12:41:44;;;;;;;10.30;2.40;;;13.50;93.40;;;;;;5054860;28;20067;-69
2022/04/27 12:44:12;;;;;;;8.50;2.20;;;13.60;93.30;;;;;;5019874;28;20053;-69
2022/04/27 12:46:54;;;;;;;13.20;2.15;;;13.70;93.10;;;;;;5036869;28;20557;-69
2022/04/27 12:49:34;;;;;;;8.95;2.15;;;13.80;93.40;;;;;;5054652;28;20045;-69
2022/04/27 12:52:23;;;;;;;11.73;2.20;;;13.80;93.00;;;;;;5054590;28;20123;-69
2022/04/27 12:54:52;;;;;;;14.23;2.13;;;13.60;93.00;;;;;;5054596;28;20049;-69
2022/04/27 12:57:18;;;;;;;8.77;2.03;;;13.60;93.00;;;;;;5054231;28;20084;-68
2022/04/27 12:59:58;;;;;;;9.15;1.95;;;13.30;92.70;;;;;;5053714;28;20040;-68
2022/04/27 13:02:25;;;;;;;15.63;2.40;;;13.60;92.80;;;;;;5054488;28;20045;-70
2022/04/27 13:04:52;;;;;;;8.82;2.28;;;13.80;92.90;;;;;;5054232;28;20051;-72
2022/04/27 13:07:18;;;;;;;12.52;1.98;;;14.10;93.00;;;;;;5054165;28;20103;-70